ジャージー島 の空港の天気 - METARとTAF

ジャージー空港 ( EGJJ / JER ) - ジャージー島 ジャージー島
飛行場実況気象(Metar)
観測時間11/18 19:20 GMT (11/18 19:20 UTC)
風向・風速北 3m/s
視程10km以上
天気現象
少しの雲 雲底高度 1040m
気温7℃
湿度76%
気圧1018hPa
METAREGJJ 181920Z 35005KT 9999 FEW034 07/03 Q1018
過去の天気等 Google飛行場航空写真 Wunderground天気予報

過去48時間のMETAR

飛行場予報(TAF)
発表時間: 11/18 16:59 GMT (11/18 16:59 UTC)
予報対象時間: 18日18時 GMT ~ 19日3時 GMT
風向・風速北 3m/s
視程10km以上
全天の4割程度の雲 雲底高度 760m
TAF EGJJ 181659Z 1818/1903 01005KT 9999 SCT025